sensor_id;sensor_type;location;lat;lon;timestamp;pressure;altitude;pressure_sealevel;temperature;humidity
51239;BME280;38154;47.548;18.828;2023-05-08T00:00:36;99170.59;;;8.77;100.00
51239;BME280;38154;47.548;18.828;2023-05-08T00:03:03;99176.41;;;8.61;100.00
51239;BME280;38154;47.548;18.828;2023-05-08T00:05:29;99174.44;;;8.46;100.00
51239;BME280;38154;47.548;18.828;2023-05-08T00:07:55;99166.50;;;8.38;100.00
51239;BME280;38154;47.548;18.828;2023-05-08T00:10:26;99167.31;;;8.37;100.00
51239;BME280;38154;47.548;18.828;2023-05-08T00:12:52;99171.88;;;8.49;100.00
51239;BME280;38154;47.548;18.828;2023-05-08T00:15:17;99179.47;;;8.36;100.00
51239;BME280;38154;47.548;18.828;2023-05-08T00:17:43;99178.34;;;8.22;100.00
51239;BME280;38154;47.548;18.828;2023-05-08T00:20:09;99176.41;;;8.10;100.00
51239;BME280;38154;47.548;18.828;2023-05-08T00:22:35;99167.59;;;8.02;100.00
51239;BME280;38154;47.548;18.828;2023-05-08T00:25:00;99169.97;;;7.90;100.00
51239;BME280;38154;47.548;18.828;2023-05-08T00:27:26;99170.69;;;7.81;100.00
51239;BME280;38154;47.548;18.828;2023-05-08T00:29:52;99174.94;;;7.77;100.00
51239;BME280;38154;47.548;18.828;2023-05-08T00:32:17;99180.91;;;7.73;100.00
51239;BME280;38154;47.548;18.828;2023-05-08T00:34:43;99177.41;;;7.70;100.00
51239;BME280;38154;47.548;18.828;2023-05-08T00:37:08;99171.28;;;7.66;100.00
51239;BME280;38154;47.548;18.828;2023-05-08T00:39:34;99174.59;;;7.60;100.00
51239;BME280;38154;47.548;18.828;2023-05-08T00:42:00;99171.94;;;7.57;100.00
51239;BME280;38154;47.548;18.828;2023-05-08T00:44:25;99177.13;;;7.56;100.00
51239;BME280;38154;47.548;18.828;2023-05-08T00:46:51;99177.16;;;7.59;100.00
51239;BME280;38154;47.548;18.828;2023-05-08T00:49:17;99183.22;;;7.58;100.00
51239;BME280;38154;47.548;18.828;2023-05-08T00:51:44;99178.75;;;7.51;100.00
51239;BME280;38154;47.548;18.828;2023-05-08T00:54:10;99179.53;;;7.47;100.00
51239;BME280;38154;47.548;18.828;2023-05-08T00:56:36;99185.50;;;7.42;100.00
51239;BME280;38154;47.548;18.828;2023-05-08T00:59:03;99182.00;;;7.40;100.00
51239;BME280;38154;47.548;18.828;2023-05-08T01:01:29;99189.78;;;7.40;100.00
51239;BME280;38154;47.548;18.828;2023-05-08T01:03:56;99195.84;;;7.41;100.00
51239;BME280;38154;47.548;18.828;2023-05-08T01:06:21;99196.62;;;7.37;100.00
51239;BME280;38154;47.548;18.828;2023-05-08T01:08:47;99193.91;;;7.31;100.00
51239;BME280;38154;47.548;18.828;2023-05-08T01:14:04;99203.09;;;7.16;100.00
51239;BME280;38154;47.548;18.828;2023-05-08T01:21:59;99200.94;;;6.97;100.00
51239;BME280;38154;47.548;18.828;2023-05-08T01:32:29;99214.41;;;6.82;100.00
51239;BME280;38154;47.548;18.828;2023-05-08T01:40:18;99228.63;;;6.61;100.00
51239;BME280;38154;47.548;18.828;2023-05-08T01:45:21;99220.59;;;6.50;100.00
51239;BME280;38154;47.548;18.828;2023-05-08T01:47:50;99223.97;;;6.48;100.00
51239;BME280;38154;47.548;18.828;2023-05-08T01:50:25;99225.53;;;6.41;100.00
51239;BME280;38154;47.548;18.828;2023-05-08T01:52:57;99216.66;;;6.31;100.00
51239;BME280;38154;47.548;18.828;2023-05-08T01:55:26;99224.44;;;6.31;100.00
51239;BME280;38154;47.548;18.828;2023-05-08T01:57:55;99220.09;;;6.30;100.00
51239;BME280;38154;47.548;18.828;2023-05-08T02:00:22;99232.06;;;6.25;100.00
51239;BME280;38154;47.548;18.828;2023-05-08T02:02:49;99230.25;;;6.23;100.00
51239;BME280;38154;47.548;18.828;2023-05-08T02:05:15;99233.72;;;6.23;100.00
51239;BME280;38154;47.548;18.828;2023-05-08T02:07:42;99230.91;;;6.14;100.00
51239;BME280;38154;47.548;18.828;2023-05-08T02:10:10;99228.19;;;6.09;100.00
51239;BME280;38154;47.548;18.828;2023-05-08T02:12:36;99233.22;;;6.05;100.00
51239;BME280;38154;47.548;18.828;2023-05-08T02:15:03;99233.16;;;6.02;100.00
51239;BME280;38154;47.548;18.828;2023-05-08T02:17:30;99244.25;;;5.98;100.00
51239;BME280;38154;47.548;18.828;2023-05-08T02:19:57;99243.19;;;5.91;100.00
51239;BME280;38154;47.548;18.828;2023-05-08T02:22:23;99240.41;;;5.85;100.00
51239;BME280;38154;47.548;18.828;2023-05-08T02:24:49;99236.03;;;5.82;100.00
51239;BME280;38154;47.548;18.828;2023-05-08T02:27:18;99243.81;;;5.82;100.00
51239;BME280;38154;47.548;18.828;2023-05-08T02:29:45;99247.25;;;5.83;100.00
51239;BME280;38154;47.548;18.828;2023-05-08T02:32:11;99244.63;;;5.81;100.00
51239;BME280;38154;47.548;18.828;2023-05-08T02:34:37;99241.94;;;5.78;100.00
51239;BME280;38154;47.548;18.828;2023-05-08T02:37:03;99241.03;;;5.76;100.00
51239;BME280;38154;47.548;18.828;2023-05-08T02:39:30;99236.78;;;5.78;100.00
51239;BME280;38154;47.548;18.828;2023-05-08T02:41:56;99235.31;;;5.88;100.00
51239;BME280;38154;47.548;18.828;2023-05-08T02:44:22;99239.72;;;5.90;100.00
51239;BME280;38154;47.548;18.828;2023-05-08T02:46:48;99236.22;;;5.88;100.00
51239;BME280;38154;47.548;18.828;2023-05-08T02:52:08;99241.31;;;5.85;100.00
51239;BME280;38154;47.548;18.828;2023-05-08T02:54:40;99236.88;;;5.81;100.00
51239;BME280;38154;47.548;18.828;2023-05-08T02:59:37;99234.03;;;5.72;100.00
51239;BME280;38154;47.548;18.828;2023-05-08T03:04:38;99241.56;;;5.64;100.00
51239;BME280;38154;47.548;18.828;2023-05-08T03:07:06;99245.87;;;5.64;100.00
51239;BME280;38154;47.548;18.828;2023-05-08T03:09:54;99249.19;;;5.60;100.00
51239;BME280;38154;47.548;18.828;2023-05-08T03:12:19;99251.75;;;5.58;100.00
51239;BME280;38154;47.548;18.828;2023-05-08T03:14:59;99252.44;;;5.52;100.00
51239;BME280;38154;47.548;18.828;2023-05-08T03:17:25;99257.47;;;5.48;100.00
51239;BME280;38154;47.548;18.828;2023-05-08T03:19:54;99262.69;;;5.49;100.00
51239;BME280;38154;47.548;18.828;2023-05-08T03:22:21;99256.94;;;5.60;100.00
51239;BME280;38154;47.548;18.828;2023-05-08T03:24:48;99255.28;;;5.60;100.00
51239;BME280;38154;47.548;18.828;2023-05-08T03:27:14;99252.72;;;5.62;100.00
51239;BME280;38154;47.548;18.828;2023-05-08T03:29:40;99251.56;;;5.52;100.00
51239;BME280;38154;47.548;18.828;2023-05-08T03:32:07;99258.56;;;5.56;100.00
51239;BME280;38154;47.548;18.828;2023-05-08T03:34:33;99255.13;;;5.55;100.00
51239;BME280;38154;47.548;18.828;2023-05-08T03:37:00;99256.78;;;5.53;100.00
51239;BME280;38154;47.548;18.828;2023-05-08T03:39:26;99252.78;;;5.63;100.00
51239;BME280;38154;47.548;18.828;2023-05-08T03:41:51;99253.94;;;5.74;100.00
51239;BME280;38154;47.548;18.828;2023-05-08T03:44:17;99262.00;;;5.85;100.00
51239;BME280;38154;47.548;18.828;2023-05-08T03:46:43;99259.25;;;6.09;100.00
51239;BME280;38154;47.548;18.828;2023-05-08T03:49:09;99258.78;;;6.24;100.00
51239;BME280;38154;47.548;18.828;2023-05-08T03:51:35;99262.72;;;6.43;100.00
51239;BME280;38154;47.548;18.828;2023-05-08T03:54:03;99262.19;;;6.57;100.00
51239;BME280;38154;47.548;18.828;2023-05-08T03:56:28;99262.34;;;6.63;100.00
51239;BME280;38154;47.548;18.828;2023-05-08T03:59:13;99266.53;;;6.93;100.00
51239;BME280;38154;47.548;18.828;2023-05-08T04:01:48;99269.56;;;7.11;100.00
51239;BME280;38154;47.548;18.828;2023-05-08T04:04:18;99265.56;;;7.27;100.00
51239;BME280;38154;47.548;18.828;2023-05-08T04:06:49;99275.56;;;7.48;100.00
51239;BME280;38154;47.548;18.828;2023-05-08T04:14:15;99281.44;;;7.80;100.00
51239;BME280;38154;47.548;18.828;2023-05-08T04:16:47;99291.94;;;7.87;100.00
51239;BME280;38154;47.548;18.828;2023-05-08T04:19:15;99288.53;;;7.88;100.00
51239;BME280;38154;47.548;18.828;2023-05-08T04:21:42;99294.63;;;7.90;100.00
51239;BME280;38154;47.548;18.828;2023-05-08T04:24:09;99293.75;;;7.91;100.00
51239;BME280;38154;47.548;18.828;2023-05-08T04:26:37;99291.97;;;7.88;100.00
51239;BME280;38154;47.548;18.828;2023-05-08T04:29:03;99293.13;;;8.01;100.00
51239;BME280;38154;47.548;18.828;2023-05-08T04:31:30;99299.19;;;8.02;100.00
51239;BME280;38154;47.548;18.828;2023-05-08T04:33:56;99297.53;;;8.07;100.00
51239;BME280;38154;47.548;18.828;2023-05-08T04:36:22;99299.44;;;8.15;100.00
51239;BME280;38154;47.548;18.828;2023-05-08T04:38:49;99308.44;;;8.33;100.00
51239;BME280;38154;47.548;18.828;2023-05-08T04:41:15;99314.78;;;8.47;100.00
51239;BME280;38154;47.548;18.828;2023-05-08T04:43:41;99313.28;;;8.59;100.00
51239;BME280;38154;47.548;18.828;2023-05-08T04:46:07;99312.56;;;8.67;100.00
51239;BME280;38154;47.548;18.828;2023-05-08T04:48:33;99319.62;;;8.76;100.00
51239;BME280;38154;47.548;18.828;2023-05-08T04:50:59;99323.09;;;8.75;100.00
51239;BME280;38154;47.548;18.828;2023-05-08T04:53:25;99337.41;;;9.00;100.00
51239;BME280;38154;47.548;18.828;2023-05-08T04:55:51;99332.59;;;9.26;100.00
51239;BME280;38154;47.548;18.828;2023-05-08T04:58:17;99337.06;;;9.34;100.00
51239;BME280;38154;47.548;18.828;2023-05-08T05:00:42;99338.97;;;9.45;100.00
51239;BME280;38154;47.548;18.828;2023-05-08T05:03:08;99342.59;;;9.57;100.00
51239;BME280;38154;47.548;18.828;2023-05-08T05:05:34;99342.81;;;9.72;100.00
51239;BME280;38154;47.548;18.828;2023-05-08T05:08:00;99342.97;;;9.84;100.00
51239;BME280;38154;47.548;18.828;2023-05-08T05:10:25;99343.31;;;10.11;100.00
51239;BME280;38154;47.548;18.828;2023-05-08T05:12:51;99350.25;;;10.10;100.00
51239;BME280;38154;47.548;18.828;2023-05-08T05:15:17;99345.03;;;10.10;100.00
51239;BME280;38154;47.548;18.828;2023-05-08T05:17:42;99344.28;;;10.19;100.00
51239;BME280;38154;47.548;18.828;2023-05-08T05:20:08;99346.72;;;10.05;100.00
51239;BME280;38154;47.548;18.828;2023-05-08T05:22:34;99345.13;;;10.18;100.00
51239;BME280;38154;47.548;18.828;2023-05-08T05:25:00;99350.41;;;10.21;100.00
51239;BME280;38154;47.548;18.828;2023-05-08T05:27:25;99345.22;;;10.27;100.00
51239;BME280;38154;47.548;18.828;2023-05-08T05:29:51;99350.44;;;10.24;100.00
51239;BME280;38154;47.548;18.828;2023-05-08T05:32:17;99353.03;;;10.23;100.00
51239;BME280;38154;47.548;18.828;2023-05-08T05:34:43;99354.69;;;10.17;100.00
51239;BME280;38154;47.548;18.828;2023-05-08T05:37:08;99345.97;;;10.17;100.00
51239;BME280;38154;47.548;18.828;2023-05-08T05:39:34;99351.16;;;10.11;100.00
51239;BME280;38154;47.548;18.828;2023-05-08T05:42:00;99356.28;;;10.06;100.00
51239;BME280;38154;47.548;18.828;2023-05-08T05:44:26;99358.91;;;10.08;100.00
51239;BME280;38154;47.548;18.828;2023-05-08T05:46:52;99361.44;;;10.01;100.00
51239;BME280;38154;47.548;18.828;2023-05-08T05:49:18;99363.16;;;10.01;100.00
51239;BME280;38154;47.548;18.828;2023-05-08T05:51:44;99363.06;;;9.93;100.00
51239;BME280;38154;47.548;18.828;2023-05-08T05:54:09;99376.28;;;10.06;100.00
51239;BME280;38154;47.548;18.828;2023-05-08T05:56:35;99374.59;;;10.11;100.00
51239;BME280;38154;47.548;18.828;2023-05-08T05:59:01;99372.28;;;10.32;100.00
51239;BME280;38154;47.548;18.828;2023-05-08T06:01:27;99375.09;;;10.49;100.00
51239;BME280;38154;47.548;18.828;2023-05-08T06:03:53;99373.34;;;10.50;100.00
51239;BME280;38154;47.548;18.828;2023-05-08T06:06:19;99382.16;;;10.60;100.00
51239;BME280;38154;47.548;18.828;2023-05-08T06:08:44;99371.94;;;10.80;100.00
51239;BME280;38154;47.548;18.828;2023-05-08T06:11:11;99382.16;;;10.60;100.00
51239;BME280;38154;47.548;18.828;2023-05-08T06:13:39;99378.69;;;10.64;97.22
51239;BME280;38154;47.548;18.828;2023-05-08T06:16:06;99385.00;;;10.81;96.53
51239;BME280;38154;47.548;18.828;2023-05-08T06:18:32;99365.03;;;10.85;92.17
51239;BME280;38154;47.548;18.828;2023-05-08T06:20:58;99377.34;;;11.01;94.70
51239;BME280;38154;47.548;18.828;2023-05-08T06:23:24;99375.84;;;11.31;94.24
51239;BME280;38154;47.548;18.828;2023-05-08T06:25:50;99383.03;;;11.57;94.15
51239;BME280;38154;47.548;18.828;2023-05-08T06:28:15;99384.06;;;11.83;86.11
51239;BME280;38154;47.548;18.828;2023-05-08T06:30:41;99386.69;;;11.83;90.04
51239;BME280;38154;47.548;18.828;2023-05-08T06:33:07;99389.47;;;12.13;83.27
51239;BME280;38154;47.548;18.828;2023-05-08T06:35:33;99395.62;;;12.21;83.09
51239;BME280;38154;47.548;18.828;2023-05-08T06:37:59;99386.13;;;12.38;79.54
51239;BME280;38154;47.548;18.828;2023-05-08T06:40:25;99393.94;;;12.41;79.05
51239;BME280;38154;47.548;18.828;2023-05-08T06:42:51;99399.94;;;12.13;76.34
51239;BME280;38154;47.548;18.828;2023-05-08T06:45:17;99398.22;;;12.21;77.73
51239;BME280;38154;47.548;18.828;2023-05-08T06:47:42;99404.38;;;12.32;74.55
51239;BME280;38154;47.548;18.828;2023-05-08T06:50:08;99400.06;;;12.37;77.38
51239;BME280;38154;47.548;18.828;2023-05-08T06:52:34;99401.81;;;12.43;77.68
51239;BME280;38154;47.548;18.828;2023-05-08T06:55:00;99404.50;;;12.65;74.81
51239;BME280;38154;47.548;18.828;2023-05-08T06:57:25;99400.97;;;12.52;72.18
51239;BME280;38154;47.548;18.828;2023-05-08T06:59:53;99403.72;;;12.98;69.23
51239;BME280;38154;47.548;18.828;2023-05-08T07:02:19;99398.50;;;13.26;65.27
51239;BME280;38154;47.548;18.828;2023-05-08T07:04:44;99402.88;;;13.65;64.81
51239;BME280;38154;47.548;18.828;2023-05-08T07:07:10;99412.50;;;13.71;64.39
51239;BME280;38154;47.548;18.828;2023-05-08T07:09:37;99408.94;;;13.97;62.20
51239;BME280;38154;47.548;18.828;2023-05-08T07:12:02;99415.84;;;14.32;66.05
51239;BME280;38154;47.548;18.828;2023-05-08T07:14:28;99412.13;;;14.85;58.29
51239;BME280;38154;47.548;18.828;2023-05-08T07:16:54;99413.75;;;16.08;54.81
51239;BME280;38154;47.548;18.828;2023-05-08T07:19:19;99410.88;;;17.56;47.24
51239;BME280;38154;47.548;18.828;2023-05-08T07:21:45;99416.41;;;17.95;46.95
51239;BME280;38154;47.548;18.828;2023-05-08T07:24:11;99412.47;;;18.16;48.29
51239;BME280;38154;47.548;18.828;2023-05-08T07:26:37;99413.03;;;18.33;43.23
51239;BME280;38154;47.548;18.828;2023-05-08T07:29:03;99414.63;;;18.84;41.96
51239;BME280;38154;47.548;18.828;2023-05-08T07:31:28;99417.22;;;19.61;40.25
51239;BME280;38154;47.548;18.828;2023-05-08T07:33:54;99423.28;;;20.65;39.75
51239;BME280;38154;47.548;18.828;2023-05-08T07:36:19;99418.31;;;21.94;36.34
51239;BME280;38154;47.548;18.828;2023-05-08T07:38:45;99421.25;;;23.06;33.48
51239;BME280;38154;47.548;18.828;2023-05-08T07:41:11;99424.53;;;24.20;31.21
51239;BME280;38154;47.548;18.828;2023-05-08T07:43:36;99423.03;;;23.05;32.86
51239;BME280;38154;47.548;18.828;2023-05-08T07:46:04;99426.75;;;23.89;31.46
51239;BME280;38154;47.548;18.828;2023-05-08T07:48:29;99430.50;;;24.85;29.31
51239;BME280;38154;47.548;18.828;2023-05-08T07:50:55;99431.34;;;24.06;30.45
51239;BME280;38154;47.548;18.828;2023-05-08T07:53:21;99435.00;;;26.12;30.33
51239;BME280;38154;47.548;18.828;2023-05-08T07:55:46;99438.34;;;26.33;27.24
51239;BME280;38154;47.548;18.828;2023-05-08T07:58:12;99434.91;;;24.67;28.43
51239;BME280;38154;47.548;18.828;2023-05-08T08:00:38;99434.97;;;24.66;30.71
51239;BME280;38154;47.548;18.828;2023-05-08T08:03:05;99438.72;;;25.55;29.60
51239;BME280;38154;47.548;18.828;2023-05-08T08:05:31;99432.66;;;26.56;27.41
51239;BME280;38154;47.548;18.828;2023-05-08T08:07:57;99441.81;;;27.01;26.55
51239;BME280;38154;47.548;18.828;2023-05-08T08:10:22;99442.91;;;26.81;27.84
51239;BME280;38154;47.548;18.828;2023-05-08T08:12:48;99433.56;;;26.73;27.65
51239;BME280;38154;47.548;18.828;2023-05-08T08:15:14;99432.81;;;26.87;26.39
51239;BME280;38154;47.548;18.828;2023-05-08T08:17:39;99430.19;;;28.54;25.67
51239;BME280;38154;47.548;18.828;2023-05-08T08:20:05;99432.97;;;28.53;23.86
51239;BME280;38154;47.548;18.828;2023-05-08T08:22:31;99433.28;;;29.73;24.55
51239;BME280;38154;47.548;18.828;2023-05-08T08:24:57;99441.28;;;30.53;23.16
51239;BME280;38154;47.548;18.828;2023-05-08T08:27:22;99431.47;;;31.28;22.50
51239;BME280;38154;47.548;18.828;2023-05-08T08:29:48;99442.44;;;31.49;21.66
51239;BME280;38154;47.548;18.828;2023-05-08T08:32:14;99433.56;;;31.35;22.85
51239;BME280;38154;47.548;18.828;2023-05-08T08:34:40;99434.03;;;30.92;21.22
51239;BME280;38154;47.548;18.828;2023-05-08T08:37:05;99427.81;;;30.79;22.22
51239;BME280;38154;47.548;18.828;2023-05-08T08:39:34;99427.38;;;31.22;22.81
51239;BME280;38154;47.548;18.828;2023-05-08T08:42:00;99431.53;;;31.02;23.63
51239;BME280;38154;47.548;18.828;2023-05-08T08:44:26;99426.91;;;31.28;21.16
51239;BME280;38154;47.548;18.828;2023-05-08T08:46:52;99427.63;;;31.19;21.60
51239;BME280;38154;47.548;18.828;2023-05-08T08:49:20;99431.09;;;31.08;21.23
51239;BME280;38154;47.548;18.828;2023-05-08T08:51:49;99425.03;;;29.76;22.26
51239;BME280;38154;47.548;18.828;2023-05-08T08:54:18;99424.69;;;28.99;23.00
51239;BME280;38154;47.548;18.828;2023-05-08T08:56:44;99430.28;;;28.81;23.19
51239;BME280;38154;47.548;18.828;2023-05-08T08:59:13;99422.03;;;28.27;24.16
51239;BME280;38154;47.548;18.828;2023-05-08T09:01:40;99422.63;;;28.90;25.10
51239;BME280;38154;47.548;18.828;2023-05-08T09:04:07;99421.78;;;29.16;23.87
51239;BME280;38154;47.548;18.828;2023-05-08T09:06:34;99425.66;;;29.67;23.85
51239;BME280;38154;47.548;18.828;2023-05-08T09:09:00;99434.59;;;28.84;23.94
51239;BME280;38154;47.548;18.828;2023-05-08T09:11:26;99433.19;;;27.74;24.82
51239;BME280;38154;47.548;18.828;2023-05-08T09:13:51;99434.50;;;28.42;23.93
51239;BME280;38154;47.548;18.828;2023-05-08T09:16:19;99416.19;;;28.35;24.26
51239;BME280;38154;47.548;18.828;2023-05-08T09:18:44;99416.13;;;28.65;25.30
51239;BME280;38154;47.548;18.828;2023-05-08T09:21:10;99425.81;;;29.23;23.31
51239;BME280;38154;47.548;18.828;2023-05-08T09:23:36;99425.81;;;29.09;24.36
51239;BME280;38154;47.548;18.828;2023-05-08T09:26:02;99426.25;;;28.45;23.79
51239;BME280;38154;47.548;18.828;2023-05-08T09:28:27;99425.34;;;29.31;23.61
51239;BME280;38154;47.548;18.828;2023-05-08T09:30:57;99413.91;;;29.95;23.17
51239;BME280;38154;47.548;18.828;2023-05-08T09:33:24;99421.00;;;29.83;25.13
51239;BME280;38154;47.548;18.828;2023-05-08T09:35:49;99414.09;;;29.52;22.62
51239;BME280;38154;47.548;18.828;2023-05-08T09:38:31;99411.31;;;29.81;22.34
51239;BME280;38154;47.548;18.828;2023-05-08T09:41:07;99417.47;;;30.34;23.18
51239;BME280;38154;47.548;18.828;2023-05-08T09:43:33;99419.94;;;30.11;21.55
51239;BME280;38154;47.548;18.828;2023-05-08T09:48:43;99416.16;;;28.20;24.28
51239;BME280;38154;47.548;18.828;2023-05-08T09:51:10;99415.50;;;27.56;25.15
51239;BME280;38154;47.548;18.828;2023-05-08T09:53:35;99414.44;;;28.05;24.19
51239;BME280;38154;47.548;18.828;2023-05-08T09:56:01;99404.78;;;28.31;23.76
51239;BME280;38154;47.548;18.828;2023-05-08T09:58:36;99413.81;;;28.73;23.50
51239;BME280;38154;47.548;18.828;2023-05-08T10:01:02;99409.81;;;29.08;24.48
51239;BME280;38154;47.548;18.828;2023-05-08T10:06:13;99410.50;;;28.97;22.88
51239;BME280;38154;47.548;18.828;2023-05-08T10:08:39;99400.41;;;28.59;23.57
51239;BME280;38154;47.548;18.828;2023-05-08T10:11:20;99402.19;;;29.29;22.99
51239;BME280;38154;47.548;18.828;2023-05-08T10:13:46;99403.66;;;28.78;22.44
51239;BME280;38154;47.548;18.828;2023-05-08T10:16:16;99407.16;;;28.07;23.13
51239;BME280;38154;47.548;18.828;2023-05-08T10:18:45;99398.25;;;27.46;23.55
51239;BME280;38154;47.548;18.828;2023-05-08T10:21:11;99384.94;;;27.28;24.03
51239;BME280;38154;47.548;18.828;2023-05-08T10:23:37;99386.97;;;27.85;23.90
51239;BME280;38154;47.548;18.828;2023-05-08T10:26:11;99401.03;;;28.91;25.97
51239;BME280;38154;47.548;18.828;2023-05-08T10:31:10;99391.31;;;29.57;21.71
51239;BME280;38154;47.548;18.828;2023-05-08T10:33:38;99394.69;;;29.34;21.64
51239;BME280;38154;47.548;18.828;2023-05-08T10:36:04;99377.00;;;28.32;22.63
51239;BME280;38154;47.548;18.828;2023-05-08T10:38:31;99393.88;;;27.89;22.94
51239;BME280;38154;47.548;18.828;2023-05-08T10:41:00;99378.72;;;27.74;22.60
51239;BME280;38154;47.548;18.828;2023-05-08T10:43:27;99379.59;;;28.19;22.56
51239;BME280;38154;47.548;18.828;2023-05-08T10:45:53;99380.00;;;28.27;24.45
51239;BME280;38154;47.548;18.828;2023-05-08T10:51:04;99385.25;;;27.84;22.87
51239;BME280;38154;47.548;18.828;2023-05-08T10:53:35;99381.22;;;28.07;22.10
51239;BME280;38154;47.548;18.828;2023-05-08T10:56:03;99375.69;;;28.10;22.85
51239;BME280;38154;47.548;18.828;2023-05-08T11:03:32;99370.78;;;29.02;23.00
51239;BME280;38154;47.548;18.828;2023-05-08T11:05:58;99371.34;;;28.80;21.24
51239;BME280;38154;47.548;18.828;2023-05-08T11:08:27;99373.56;;;28.30;20.98
51239;BME280;38154;47.548;18.828;2023-05-08T11:13:29;99363.59;;;28.03;21.12
51239;BME280;38154;47.548;18.828;2023-05-08T11:15:56;99351.25;;;28.29;22.23
51239;BME280;38154;47.548;18.828;2023-05-08T11:18:22;99348.78;;;29.24;21.46
51239;BME280;38154;47.548;18.828;2023-05-08T11:23:21;99357.47;;;28.16;19.93
51239;BME280;38154;47.548;18.828;2023-05-08T11:25:47;99350.03;;;27.76;20.43
51239;BME280;38154;47.548;18.828;2023-05-08T11:28:15;99353.16;;;27.68;20.38
51239;BME280;38154;47.548;18.828;2023-05-08T11:30:42;99355.56;;;26.80;22.03
51239;BME280;38154;47.548;18.828;2023-05-08T11:40:54;99339.91;;;26.57;21.25
51239;BME280;38154;47.548;18.828;2023-05-08T11:43:30;99337.22;;;26.57;20.91
51239;BME280;38154;47.548;18.828;2023-05-08T11:46:03;99333.91;;;26.36;22.89
51239;BME280;38154;47.548;18.828;2023-05-08T11:48:29;99340.13;;;25.85;24.63
51239;BME280;38154;47.548;18.828;2023-05-08T11:50:55;99341.25;;;25.46;24.22
51239;BME280;38154;47.548;18.828;2023-05-08T11:53:21;99346.34;;;24.40;23.13
51239;BME280;38154;47.548;18.828;2023-05-08T11:55:47;99342.50;;;24.07;23.22
51239;BME280;38154;47.548;18.828;2023-05-08T11:58:14;99336.63;;;22.71;25.95
51239;BME280;38154;47.548;18.828;2023-05-08T12:00:40;99340.41;;;22.42;26.06
51239;BME280;38154;47.548;18.828;2023-05-08T12:03:12;99330.37;;;22.72;26.15
51239;BME280;38154;47.548;18.828;2023-05-08T12:05:38;99325.56;;;22.82;25.40
51239;BME280;38154;47.548;18.828;2023-05-08T12:08:04;99342.69;;;22.29;26.02
51239;BME280;38154;47.548;18.828;2023-05-08T12:10:30;99334.94;;;21.47;25.12
51239;BME280;38154;47.548;18.828;2023-05-08T12:12:56;99333.50;;;21.10;26.98
51239;BME280;38154;47.548;18.828;2023-05-08T12:15:22;99330.03;;;21.35;27.17
51239;BME280;38154;47.548;18.828;2023-05-08T12:17:47;99333.72;;;21.58;26.55
51239;BME280;38154;47.548;18.828;2023-05-08T12:20:14;99345.13;;;21.60;28.28
51239;BME280;38154;47.548;18.828;2023-05-08T12:22:40;99340.31;;;21.18;27.33
51239;BME280;38154;47.548;18.828;2023-05-08T12:25:07;99337.19;;;20.78;28.10
51239;BME280;38154;47.548;18.828;2023-05-08T12:27:36;99343.03;;;20.30;28.23
51239;BME280;38154;47.548;18.828;2023-05-08T12:30:08;99349.84;;;19.76;29.19
51239;BME280;38154;47.548;18.828;2023-05-08T12:32:39;99336.44;;;19.82;29.94
51239;BME280;38154;47.548;18.828;2023-05-08T12:35:05;99332.81;;;20.16;31.12
51239;BME280;38154;47.548;18.828;2023-05-08T12:37:31;99335.81;;;20.66;30.52
51239;BME280;38154;47.548;18.828;2023-05-08T12:39:57;99329.09;;;20.53;27.22
51239;BME280;38154;47.548;18.828;2023-05-08T12:42:40;99326.38;;;20.54;27.08
51239;BME280;38154;47.548;18.828;2023-05-08T12:45:05;99337.19;;;20.48;28.50
51239;BME280;38154;47.548;18.828;2023-05-08T12:47:31;99326.09;;;20.04;28.62
51239;BME280;38154;47.548;18.828;2023-05-08T12:49:57;99350.97;;;19.98;28.20
51239;BME280;38154;47.548;18.828;2023-05-08T12:52:22;99334.06;;;19.37;28.77
51239;BME280;38154;47.548;18.828;2023-05-08T12:54:48;99344.91;;;19.26;29.76
51239;BME280;38154;47.548;18.828;2023-05-08T12:57:17;99341.56;;;19.19;29.24
51239;BME280;38154;47.548;18.828;2023-05-08T12:59:44;99335.03;;;19.34;28.83
51239;BME280;38154;47.548;18.828;2023-05-08T13:02:20;99336.63;;;19.74;30.07
51239;BME280;38154;47.548;18.828;2023-05-08T13:04:52;99345.28;;;19.46;30.10
51239;BME280;38154;47.548;18.828;2023-05-08T13:07:18;99345.66;;;19.65;30.25
51239;BME280;38154;47.548;18.828;2023-05-08T13:09:59;99352.50;;;19.74;30.95
51239;BME280;38154;47.548;18.828;2023-05-08T13:12:29;99344.59;;;19.38;30.13
51239;BME280;38154;47.548;18.828;2023-05-08T13:14:54;99335.56;;;18.73;31.46
51239;BME280;38154;47.548;18.828;2023-05-08T13:17:20;99330.00;;;18.87;32.10
51239;BME280;38154;47.548;18.828;2023-05-08T13:19:46;99330.28;;;19.13;32.20
51239;BME280;38154;47.548;18.828;2023-05-08T13:22:11;99325.94;;;19.08;32.90
51239;BME280;38154;47.548;18.828;2023-05-08T13:24:37;99333.66;;;19.18;29.04
51239;BME280;38154;47.548;18.828;2023-05-08T13:27:03;99337.75;;;19.31;29.31
51239;BME280;38154;47.548;18.828;2023-05-08T13:29:28;99334.62;;;19.50;29.76
51239;BME280;38154;47.548;18.828;2023-05-08T13:31:54;99340.78;;;19.50;29.45
51239;BME280;38154;47.548;18.828;2023-05-08T13:34:19;99327.81;;;19.41;29.84
51239;BME280;38154;47.548;18.828;2023-05-08T13:36:45;99335.50;;;19.16;28.30
51239;BME280;38154;47.548;18.828;2023-05-08T13:39:11;99332.66;;;18.86;28.20
51239;BME280;38154;47.548;18.828;2023-05-08T13:41:36;99330.06;;;18.84;28.81
51239;BME280;38154;47.548;18.828;2023-05-08T13:44:02;99322.59;;;19.02;28.09
51239;BME280;38154;47.548;18.828;2023-05-08T13:46:28;99328.31;;;19.21;29.78
51239;BME280;38154;47.548;18.828;2023-05-08T13:48:53;99330.66;;;18.97;27.87
51239;BME280;38154;47.548;18.828;2023-05-08T13:51:19;99324.34;;;18.64;28.25
51239;BME280;38154;47.548;18.828;2023-05-08T13:53:45;99322.84;;;18.52;28.53